createdAt,value
2022-09-05T00:04:24.749Z,14.56
2022-09-05T00:09:59.816Z,14.62
2022-09-05T00:15:19.399Z,14.58
2022-09-05T00:24:25.967Z,14.55
2022-09-05T00:26:04.986Z,14.39
2022-09-05T00:31:55.385Z,14.49
2022-09-05T00:37:00.449Z,14.48
2022-09-05T00:42:10.677Z,14.75
2022-09-05T00:47:23.660Z,14.80
2022-09-05T00:52:35.598Z,14.72
2022-09-05T00:58:12.284Z,14.74
2022-09-05T01:03:54.006Z,14.65
2022-09-05T01:09:11.446Z,14.59
2022-09-05T01:14:38.794Z,14.68
2022-09-05T01:20:04.837Z,14.70
2022-09-05T01:25:40.603Z,14.77
2022-09-05T01:30:56.968Z,14.56
2022-09-05T01:36:33.110Z,14.50
2022-09-05T01:41:46.194Z,14.55
2022-09-05T01:47:04.159Z,14.48
2022-09-05T01:52:26.085Z,14.50
2022-09-05T01:57:41.921Z,14.38
2022-09-05T02:03:02.557Z,14.28
2022-09-05T02:08:41.892Z,14.29
2022-09-05T02:13:54.845Z,14.35
2022-09-05T02:19:07.715Z,14.36
2022-09-05T02:24:19.202Z,14.19
2022-09-05T02:29:30.010Z,14.11
2022-09-05T02:34:44.185Z,14.11
2022-09-05T02:45:04.041Z,14.15
2022-09-05T02:45:28.654Z,14.11
2022-09-05T02:56:50.788Z,14.09
2022-09-05T02:58:05.403Z,14.11
2022-09-05T03:01:59.946Z,14.05
2022-09-05T03:07:47.226Z,14.01
2022-09-05T03:13:54.118Z,14.04
2022-09-05T03:19:46.192Z,14.00
2022-09-05T03:25:19.618Z,13.85
2022-09-05T03:30:25.100Z,13.86
2022-09-05T03:36:20.537Z,13.74
2022-09-05T03:41:44.924Z,13.79
2022-09-05T03:47:13.905Z,13.77
2022-09-05T03:57:10.413Z,13.81
2022-09-05T03:58:56.265Z,13.70
2022-09-05T04:08:16.624Z,13.70
2022-09-05T04:09:50.204Z,13.82
2022-09-05T04:15:00.127Z,13.88
2022-09-05T04:20:13.108Z,13.97
2022-09-05T04:25:22.760Z,14.10
2022-09-05T04:30:40.385Z,14.20
2022-09-05T04:35:58.522Z,14.30
2022-09-05T04:41:04.647Z,14.33
2022-09-05T04:46:19.258Z,14.59
2022-09-05T04:52:01.100Z,14.91
2022-09-05T04:57:16.009Z,15.13
2022-09-05T05:06:18.347Z,15.29
2022-09-05T05:07:59.251Z,15.38
2022-09-05T05:17:56.702Z,15.41
2022-09-05T05:18:53.203Z,15.63
2022-09-05T05:24:10.301Z,15.77
2022-09-05T05:29:23.170Z,15.92
2022-09-05T05:34:31.559Z,16.09
2022-09-05T05:39:41.954Z,16.24
2022-09-05T05:44:50.853Z,16.43
2022-09-05T05:50:08.014Z,16.57
2022-09-05T05:55:51.963Z,16.66
2022-09-05T06:01:37.586Z,16.81
2022-09-05T06:06:56.820Z,17.02
2022-09-05T06:15:02.807Z,17.24
2022-09-05T06:18:42.547Z,17.52
2022-09-05T06:24:21.181Z,17.71
2022-09-05T06:29:47.054Z,18.13
2022-09-05T06:35:28.274Z,18.28
2022-09-05T06:40:38.009Z,18.74
2022-09-05T06:46:00.039Z,18.86
2022-09-05T06:51:37.402Z,19.21
2022-09-05T06:57:03.634Z,19.41
2022-09-05T07:02:59.555Z,19.53
2022-09-05T07:07:47.105Z,19.84
2022-09-05T07:12:58.584Z,20.03
2022-09-05T07:18:13.682Z,20.20
2022-09-05T07:24:07.062Z,20.45
2022-09-05T07:29:04.063Z,20.67
2022-09-05T07:34:20.492Z,20.64
2022-09-05T07:39:30.414Z,20.68
2022-09-05T07:44:37.472Z,20.69
2022-09-05T07:51:38.853Z,21.21
2022-09-05T07:57:01.955Z,21.51
2022-09-05T08:00:47.799Z,21.66
2022-09-05T08:05:55.612Z,21.90
2022-09-05T08:11:23.772Z,22.03
2022-09-05T08:16:29.402Z,22.29
2022-09-05T08:21:42.506Z,22.56
2022-09-05T08:26:50.950Z,22.43
2022-09-05T08:31:58.244Z,22.87
2022-09-05T08:37:05.404Z,22.47
2022-09-05T08:42:26.828Z,22.60
2022-09-05T08:47:45.256Z,22.51
2022-09-05T08:52:59.740Z,23.07
2022-09-05T08:58:12.446Z,23.52
2022-09-05T09:03:25.779Z,23.92
2022-09-05T09:08:45.332Z,24.29
2022-09-05T09:13:55.669Z,23.38
2022-09-05T09:19:11.680Z,24.11
2022-09-05T09:24:30.605Z,22.94
2022-09-05T09:29:40.223Z,22.27
2022-09-05T09:34:53.081Z,22.68
2022-09-05T09:40:34.818Z,24.15
2022-09-05T09:46:05.803Z,23.19
2022-09-05T09:51:27.009Z,23.30
2022-09-05T09:57:05.713Z,23.60
2022-09-05T10:06:03.187Z,22.80
2022-09-05T10:10:52.717Z,21.95
2022-09-05T10:14:47.567Z,21.83
2022-09-05T10:20:10.413Z,21.74
2022-09-05T10:25:31.449Z,22.02
2022-09-05T10:32:13.596Z,22.46
2022-09-05T10:36:25.524Z,22.01
2022-09-05T10:41:44.923Z,22.10
2022-09-05T10:46:59.100Z,22.73
2022-09-05T10:52:18.625Z,22.12
2022-09-05T10:57:36.879Z,21.77
2022-09-05T11:02:48.229Z,21.79
2022-09-05T11:08:03.444Z,22.94
2022-09-05T11:13:23.974Z,23.22
2022-09-05T11:18:55.511Z,22.91
2022-09-05T11:24:14.248Z,22.54
2022-09-05T11:29:23.740Z,22.15
2022-09-05T11:39:47.121Z,21.89
2022-09-05T11:40:48.515Z,21.70
2022-09-05T11:46:33.453Z,21.82
2022-09-05T11:52:42.047Z,21.95
2022-09-05T11:57:57.609Z,22.15
2022-09-05T12:03:59.845Z,21.95
2022-09-05T12:09:23.428Z,21.59
2022-09-05T12:14:42.467Z,21.50
2022-09-05T12:20:02.235Z,21.49
2022-09-05T12:26:30.772Z,21.52
2022-09-05T12:40:28.680Z,21.41
2022-09-05T12:42:10.481Z,21.49
2022-09-05T12:42:13.889Z,21.48
2022-09-05T12:47:18.999Z,21.34
2022-09-05T12:52:37.108Z,21.35
2022-09-05T13:02:11.282Z,21.28
2022-09-05T13:03:28.338Z,21.26
2022-09-05T13:08:59.382Z,21.25
2022-09-05T13:14:52.983Z,21.37
2022-09-05T13:19:43.525Z,21.37
2022-09-05T13:24:51.787Z,21.46
2022-09-05T13:31:29.914Z,21.65
2022-09-05T13:38:17.893Z,21.33
2022-09-05T13:40:58.387Z,21.12
2022-09-05T13:46:11.348Z,21.04
2022-09-05T13:51:33.297Z,21.01
2022-09-05T13:56:46.185Z,21.06
2022-09-05T14:02:27.671Z,20.94
2022-09-05T14:07:52.192Z,21.07
2022-09-05T14:13:02.683Z,21.13
2022-09-05T14:18:21.429Z,21.58
2022-09-05T14:23:31.812Z,21.51
2022-09-05T14:28:41.696Z,21.41
2022-09-05T14:37:42.765Z,21.70
2022-09-05T14:39:59.618Z,21.91
2022-09-05T14:45:25.030Z,21.72
2022-09-05T14:51:06.782Z,21.61
2022-09-05T14:57:23.047Z,21.29
2022-09-05T15:02:51.878Z,21.09
2022-09-05T15:07:26.226Z,20.73
2022-09-05T15:12:44.103Z,20.57
2022-09-05T15:17:54.864Z,20.39
2022-09-05T15:22:59.193Z,20.44
2022-09-05T15:28:22.255Z,20.33
2022-09-05T15:33:28.407Z,20.13
2022-09-05T15:38:54.753Z,20.05
2022-09-05T15:44:04.246Z,19.87
2022-09-05T15:49:25.772Z,19.77
2022-09-05T15:54:38.542Z,19.67
2022-09-05T15:59:49.328Z,19.56
2022-09-05T16:08:45.808Z,19.48
2022-09-05T16:11:09.973Z,19.41
2022-09-05T16:22:11.259Z,19.27
2022-09-05T16:23:28.092Z,19.15
2022-09-05T16:26:52.391Z,19.05
2022-09-05T16:32:16.128Z,19.00
2022-09-05T16:37:26.289Z,18.85
2022-09-05T16:42:45.757Z,18.69
2022-09-05T16:48:00.845Z,18.52
2022-09-05T16:53:28.354Z,18.42
2022-09-05T16:58:39.503Z,18.30
2022-09-05T17:03:54.025Z,18.03
2022-09-05T17:09:13.431Z,18.04
2022-09-05T17:14:22.364Z,18.08
2022-09-05T17:19:33.746Z,18.04
2022-09-05T17:29:17.457Z,17.97
2022-09-05T17:35:59.991Z,17.76
2022-09-05T17:41:36.137Z,17.55
2022-09-05T17:46:49.278Z,17.47
2022-09-05T17:52:22.165Z,17.35
2022-09-05T17:57:37.845Z,17.31
2022-09-05T18:02:56.245Z,17.19
2022-09-05T18:08:01.305Z,17.06
2022-09-05T18:13:32.635Z,16.99
2022-09-05T18:19:28.028Z,16.92
2022-09-05T18:24:07.886Z,16.70
2022-09-05T18:29:57.458Z,16.60
2022-09-05T18:35:20.251Z,16.48
2022-09-05T18:40:53.347Z,16.27
2022-09-05T18:46:01.113Z,16.19
2022-09-05T18:51:16.256Z,16.22
2022-09-05T18:56:33.164Z,16.09
2022-09-05T19:01:41.269Z,16.01
2022-09-05T19:06:48.722Z,15.89
2022-09-05T19:12:32.063Z,15.88
2022-09-05T19:17:35.783Z,15.89
2022-09-05T19:23:09.738Z,15.86
2022-09-05T19:36:46.237Z,15.73
2022-09-05T19:37:08.192Z,15.65
2022-09-05T19:41:49.473Z,15.66
2022-09-05T19:47:51.865Z,15.57
2022-09-05T19:50:11.619Z,15.49
2022-09-05T19:55:22.558Z,15.37
2022-09-05T20:00:29.102Z,15.36
2022-09-05T20:05:33.640Z,15.28
2022-09-05T20:10:37.600Z,15.27
2022-09-05T20:15:43.239Z,15.28
2022-09-05T20:20:53.770Z,15.24
2022-09-05T20:25:59.094Z,15.20
2022-09-05T20:31:08.752Z,15.10
2022-09-05T20:42:33.546Z,14.94
2022-09-05T20:43:16.206Z,14.94
2022-09-05T20:50:26.057Z,14.96
2022-09-05T20:54:19.904Z,14.95
2022-09-05T20:58:09.500Z,14.89
2022-09-05T21:03:27.194Z,14.88
2022-09-05T21:08:34.864Z,14.83
2022-09-05T21:13:52.075Z,14.74
2022-09-05T21:18:58.358Z,14.63
2022-09-05T21:24:06.340Z,14.46
2022-09-05T21:29:32.488Z,14.55
2022-09-05T21:34:44.924Z,14.55
2022-09-05T21:39:58.641Z,14.57
2022-09-05T21:47:41.523Z,14.32
2022-09-05T21:50:32.907Z,14.13
2022-09-05T21:59:32.701Z,14.20
2022-09-05T22:01:01.385Z,14.08
2022-09-05T22:06:07.752Z,13.92
2022-09-05T22:11:13.495Z,13.87
2022-09-05T22:16:17.171Z,13.71
2022-09-05T22:21:33.304Z,13.81
2022-09-05T22:27:11.876Z,13.72
2022-09-05T22:32:07.213Z,13.65
2022-09-05T22:37:16.402Z,13.85
2022-09-05T22:42:20.116Z,13.85
2022-09-05T22:47:24.477Z,13.84
2022-09-05T22:52:29.427Z,13.86
2022-09-05T22:57:32.930Z,13.91
2022-09-05T23:02:36.534Z,13.89
2022-09-05T23:07:41.401Z,13.63
2022-09-05T23:12:44.880Z,13.50
2022-09-05T23:17:55.047Z,13.50
2022-09-05T23:23:04.351Z,13.47
2022-09-05T23:28:09.145Z,13.50
2022-09-05T23:33:12.581Z,13.52
2022-09-05T23:38:17.426Z,13.59
2022-09-05T23:43:20.849Z,13.58
2022-09-05T23:48:24.642Z,13.44
2022-09-05T23:53:29.642Z,13.20
2022-09-05T23:58:33.908Z,13.18
